createdAt,value
2017-11-13T00:00:09.898Z,98.96
2017-11-13T00:01:09.922Z,98.77
2017-11-13T00:02:09.954Z,99.34
2017-11-13T00:03:09.988Z,99.06
2017-11-13T00:04:10.022Z,99.15
2017-11-13T00:05:10.062Z,99.15
2017-11-13T00:06:10.085Z,98.77
2017-11-13T00:07:10.118Z,98.58
2017-11-13T00:08:10.163Z,98.77
2017-11-13T00:09:10.182Z,99.15
2017-11-13T00:10:10.218Z,99.25
2017-11-13T00:11:10.249Z,98.77
2017-11-13T00:12:10.282Z,98.49
2017-11-13T00:13:10.314Z,98.58
2017-11-13T00:14:10.343Z,98.58
2017-11-13T00:15:10.388Z,98.68
2017-11-13T00:16:10.411Z,98.68
2017-11-13T00:17:10.440Z,99.15
2017-11-13T00:18:10.474Z,98.77
2017-11-13T00:19:10.508Z,98.58
2017-11-13T00:20:10.541Z,98.30
2017-11-13T00:21:10.578Z,98.68
2017-11-13T00:22:10.603Z,98.87
2017-11-13T00:23:10.640Z,98.77
2017-11-13T00:24:10.672Z,98.11
2017-11-13T00:25:10.705Z,98.11
2017-11-13T00:26:10.736Z,98.58
2017-11-13T00:27:10.769Z,98.11
2017-11-13T00:28:10.803Z,98.21
2017-11-13T00:29:10.841Z,98.58
2017-11-13T00:30:10.869Z,98.87
2017-11-13T00:31:10.900Z,98.58
2017-11-13T00:32:10.932Z,98.30
2017-11-13T00:33:10.965Z,98.68
2017-11-13T00:34:11.013Z,98.77
2017-11-13T00:35:11.030Z,98.87
2017-11-13T00:36:11.068Z,98.49
2017-11-13T00:37:11.098Z,98.30
2017-11-13T00:38:11.131Z,98.39
2017-11-13T00:39:11.161Z,98.39
2017-11-13T00:40:11.195Z,97.73
2017-11-13T00:41:11.226Z,98.39
2017-11-13T00:42:11.261Z,98.39
2017-11-13T00:43:11.290Z,98.39
2017-11-13T00:44:11.325Z,99.06
2017-11-13T00:45:11.361Z,98.77
2017-11-13T00:46:11.393Z,98.39
2017-11-13T00:47:11.421Z,98.49
2017-11-13T00:48:11.456Z,98.58
2017-11-13T00:49:11.486Z,98.58
2017-11-13T00:50:11.519Z,98.39
2017-11-13T00:51:11.551Z,98.58
2017-11-13T00:52:11.590Z,98.49
2017-11-13T00:53:11.616Z,98.21
2017-11-13T00:54:11.650Z,98.87
2017-11-13T00:55:11.694Z,98.49
2017-11-13T00:56:11.722Z,98.21
2017-11-13T00:57:11.752Z,98.30
2017-11-13T00:58:11.781Z,98.49
2017-11-13T00:59:11.815Z,98.30
2017-11-13T01:00:11.846Z,98.58
2017-11-13T01:01:11.893Z,98.30
2017-11-13T01:02:11.917Z,98.21
2017-11-13T01:03:11.945Z,98.58
2017-11-13T01:04:12.082Z,98.58
2017-11-13T01:05:12.011Z,98.21
2017-11-13T01:06:12.094Z,97.92
2017-11-13T01:07:12.079Z,98.58
2017-11-13T01:08:12.119Z,98.21
2017-11-13T01:09:12.143Z,98.49
2017-11-13T01:10:12.181Z,98.30
2017-11-13T01:11:12.210Z,98.21
2017-11-13T01:12:12.242Z,98.49
2017-11-13T01:13:12.282Z,97.92
2017-11-13T01:14:12.307Z,97.64
2017-11-13T01:15:12.341Z,98.02
2017-11-13T01:16:12.373Z,97.92
2017-11-13T01:17:12.405Z,97.73
2017-11-13T01:18:12.437Z,97.45
2017-11-13T01:19:12.472Z,97.54
2017-11-13T01:20:12.504Z,97.73
2017-11-13T01:21:12.559Z,97.45
2017-11-13T01:22:12.575Z,96.88
2017-11-13T01:23:12.606Z,96.88
2017-11-13T01:24:12.644Z,97.26
2017-11-13T01:25:12.674Z,96.88
2017-11-13T01:26:12.704Z,97.35
2017-11-13T01:27:12.736Z,97.07
2017-11-13T01:28:12.772Z,97.26
2017-11-13T01:29:12.802Z,97.73
2017-11-13T01:30:12.833Z,97.54
2017-11-13T01:31:12.868Z,97.64
2017-11-13T01:32:12.903Z,97.83
2017-11-13T01:33:12.933Z,98.58
2017-11-13T01:34:12.968Z,98.39
2017-11-13T01:35:12.998Z,98.30
2017-11-13T01:36:13.032Z,98.68
2017-11-13T01:37:13.067Z,98.58
2017-11-13T01:38:13.098Z,98.87
2017-11-13T01:39:13.147Z,97.54
2017-11-13T01:40:13.164Z,97.73
2017-11-13T01:41:13.197Z,98.58
2017-11-13T01:42:13.236Z,98.77
2017-11-13T01:43:13.267Z,98.77
2017-11-13T01:44:13.299Z,98.58
2017-11-13T01:45:13.328Z,99.44
2017-11-13T01:46:13.365Z,99.25
2017-11-13T01:47:13.398Z,98.87
2017-11-13T01:48:13.429Z,99.34
2017-11-13T01:49:13.465Z,98.77
2017-11-13T01:50:13.495Z,98.49
2017-11-13T01:51:13.530Z,98.68
2017-11-13T01:52:13.565Z,99.34
2017-11-13T01:53:13.669Z,99.15
2017-11-13T01:54:13.634Z,99.06
2017-11-13T01:55:13.665Z,98.77
2017-11-13T01:56:13.693Z,99.15
2017-11-13T01:57:13.737Z,99.15
2017-11-13T01:58:13.760Z,98.49
2017-11-13T01:59:13.792Z,98.77
2017-11-13T02:00:13.827Z,98.87
2017-11-13T02:01:13.857Z,98.87
2017-11-13T02:02:13.941Z,98.77
2017-11-13T02:03:13.925Z,98.68
2017-11-13T02:04:14.014Z,98.87
2017-11-13T02:05:13.992Z,98.58
2017-11-13T02:06:14.032Z,98.58
2017-11-13T02:07:14.059Z,98.58
2017-11-13T02:08:14.090Z,98.02
2017-11-13T02:09:14.126Z,98.11
2017-11-13T02:10:14.157Z,97.54
2017-11-13T02:11:14.200Z,98.39
2017-11-13T02:12:14.232Z,98.58
2017-11-13T02:13:14.307Z,98.68
2017-11-13T02:14:14.289Z,98.39
2017-11-13T02:15:14.320Z,98.68
2017-11-13T02:16:14.358Z,98.21
2017-11-13T02:17:14.389Z,98.39
2017-11-13T02:18:14.421Z,98.63
2017-11-13T02:19:14.455Z,98.30
2017-11-13T02:20:14.487Z,98.30
2017-11-13T02:21:14.522Z,98.30
2017-11-13T02:22:14.556Z,98.25
2017-11-13T02:23:14.587Z,98.58
2017-11-13T02:24:14.619Z,97.50
2017-11-13T02:25:14.657Z,97.16
2017-11-13T02:26:14.691Z,96.88
2017-11-13T02:27:14.719Z,97.64
2017-11-13T02:28:14.752Z,97.92
2017-11-13T02:29:14.786Z,97.26
2017-11-13T02:30:14.821Z,97.73
2017-11-13T02:31:14.853Z,97.45
2017-11-13T02:32:14.895Z,97.83
2017-11-13T02:33:14.917Z,97.92
2017-11-13T02:34:14.952Z,97.92
2017-11-13T02:35:14.988Z,97.92
2017-11-13T02:36:15.021Z,97.83
2017-11-13T02:37:15.050Z,97.92
2017-11-13T02:38:15.082Z,98.21
2017-11-13T02:39:15.119Z,98.21
2017-11-13T02:40:15.152Z,98.87
2017-11-13T02:41:15.184Z,98.58
2017-11-13T02:42:15.218Z,98.96
2017-11-13T02:43:15.251Z,98.68
2017-11-13T02:44:15.286Z,98.77
2017-11-13T02:45:15.318Z,98.30
2017-11-13T02:46:15.358Z,98.87
2017-11-13T02:47:15.388Z,98.77
2017-11-13T02:48:15.417Z,98.77
2017-11-13T02:49:15.548Z,99.06
2017-11-13T02:50:15.490Z,99.34
2017-11-13T02:51:15.518Z,99.53
2017-11-13T02:52:15.549Z,98.96
2017-11-13T02:53:15.593Z,99.53
2017-11-13T02:54:15.615Z,99.91
2017-11-13T02:55:15.649Z,99.44
2017-11-13T02:56:15.685Z,98.87
2017-11-13T02:57:15.719Z,98.87
2017-11-13T02:58:15.881Z,99.44
2017-11-13T02:59:15.781Z,98.96
2017-11-13T03:00:15.822Z,98.77
2017-11-13T03:01:15.849Z,99.06
2017-11-13T03:02:15.884Z,99.25
2017-11-13T03:03:15.915Z,98.77
2017-11-13T03:04:15.949Z,99.15
2017-11-13T03:05:15.979Z,99.53
2017-11-13T03:06:16.014Z,99.91
2017-11-13T03:07:16.049Z,99.91
2017-11-13T03:08:16.080Z,99.99
2017-11-13T03:09:16.163Z,99.72
2017-11-13T03:10:16.149Z,99.63
2017-11-13T03:11:16.179Z,98.96
2017-11-13T03:12:16.219Z,98.58
2017-11-13T03:13:16.244Z,98.96
2017-11-13T03:14:16.279Z,99.15
2017-11-13T03:15:16.311Z,99.34
2017-11-13T03:16:16.344Z,99.53
2017-11-13T03:17:16.380Z,99.53
2017-11-13T03:18:16.409Z,99.34
2017-11-13T03:19:16.448Z,99.82
2017-11-13T03:20:16.480Z,99.82
2017-11-13T03:21:16.510Z,99.72
2017-11-13T03:22:16.542Z,99.72
2017-11-13T03:23:16.574Z,99.72
2017-11-13T03:24:16.609Z,99.53
2017-11-13T03:25:16.644Z,99.53
2017-11-13T03:26:16.680Z,99.63
2017-11-13T03:27:16.711Z,99.34
2017-11-13T03:28:16.743Z,99.53
2017-11-13T03:29:16.773Z,99.06
2017-11-13T03:30:16.811Z,99.06
2017-11-13T03:31:16.844Z,98.58
2017-11-13T03:32:16.886Z,99.53
2017-11-13T03:33:16.906Z,99.53
2017-11-13T03:34:16.940Z,99.53
2017-11-13T03:35:16.974Z,99.53
2017-11-13T03:36:17.006Z,99.44
2017-11-13T03:37:17.042Z,99.63
2017-11-13T03:38:17.075Z,99.82
2017-11-13T03:39:17.115Z,98.96
2017-11-13T03:40:17.154Z,99.82
2017-11-13T03:41:17.171Z,99.72
2017-11-13T03:42:17.205Z,99.53
2017-11-13T03:43:17.241Z,99.99
2017-11-13T03:44:17.272Z,99.99
2017-11-13T03:45:17.302Z,99.99
2017-11-13T03:46:17.336Z,99.99
2017-11-13T03:47:17.373Z,99.53
2017-11-13T03:48:17.405Z,99.53
2017-11-13T03:49:17.441Z,99.72
2017-11-13T03:50:17.465Z,99.72
2017-11-13T03:51:17.501Z,99.72
2017-11-13T03:52:17.536Z,99.82
2017-11-13T03:53:17.570Z,99.06
2017-11-13T03:54:17.602Z,98.58
2017-11-13T03:55:17.634Z,99.34
2017-11-13T03:56:17.694Z,99.06
2017-11-13T03:57:17.702Z,98.87
2017-11-13T03:58:17.742Z,98.49
2017-11-13T03:59:17.766Z,99.53
2017-11-13T04:00:17.809Z,98.87
2017-11-13T04:01:17.835Z,99.44
2017-11-13T04:02:17.871Z,99.63
2017-11-13T04:03:17.898Z,99.72
2017-11-13T04:04:17.932Z,99.53
2017-11-13T04:05:18.074Z,99.72
2017-11-13T04:06:18.001Z,99.82
2017-11-13T04:07:18.032Z,99.63
2017-11-13T04:08:18.069Z,99.63
2017-11-13T04:09:18.095Z,99.72
2017-11-13T04:10:18.133Z,99.82
2017-11-13T04:11:18.163Z,99.53
2017-11-13T04:12:18.202Z,99.72
2017-11-13T04:13:18.229Z,99.91
2017-11-13T04:14:18.318Z,99.99
2017-11-13T04:15:18.295Z,99.99
2017-11-13T04:16:18.382Z,99.53
2017-11-13T04:17:18.363Z,99.99
2017-11-13T04:18:18.396Z,99.99
2017-11-13T04:19:18.430Z,99.99
2017-11-13T04:20:18.462Z,99.99
2017-11-13T04:21:18.493Z,99.99
2017-11-13T04:22:18.529Z,99.99
2017-11-13T04:23:18.558Z,99.99
2017-11-13T04:24:18.594Z,99.99
2017-11-13T04:25:18.624Z,99.82
2017-11-13T04:26:18.659Z,99.99
2017-11-13T04:27:18.694Z,99.99
2017-11-13T04:28:18.724Z,99.99
2017-11-13T04:29:18.757Z,99.99
2017-11-13T04:30:18.791Z,99.99
2017-11-13T04:31:18.825Z,99.99
2017-11-13T04:32:18.859Z,99.99
2017-11-13T04:33:18.889Z,99.99
2017-11-13T04:34:18.937Z,99.99
2017-11-13T04:35:18.953Z,99.99
2017-11-13T04:36:18.987Z,99.99
2017-11-13T04:37:19.024Z,99.99
2017-11-13T04:38:19.054Z,99.99
2017-11-13T04:39:19.087Z,99.82
2017-11-13T04:40:19.124Z,99.99
2017-11-13T04:41:19.154Z,99.99
2017-11-13T04:42:19.186Z,99.99
2017-11-13T04:43:19.220Z,99.99
2017-11-13T04:44:19.257Z,99.99
2017-11-13T04:45:19.285Z,99.99
2017-11-13T04:46:19.317Z,99.82
2017-11-13T04:47:19.352Z,99.99
2017-11-13T04:48:19.386Z,99.34
2017-11-13T04:49:19.418Z,99.34
2017-11-13T04:50:19.456Z,99.34
2017-11-13T04:51:19.490Z,99.34
2017-11-13T04:52:19.578Z,99.34
2017-11-13T04:53:19.556Z,99.53
2017-11-13T04:54:19.585Z,99.82
2017-11-13T04:55:19.617Z,99.72
2017-11-13T04:56:19.652Z,99.53
2017-11-13T04:57:19.686Z,99.82
2017-11-13T04:58:19.716Z,99.82
2017-11-13T04:59:19.749Z,99.63
2017-11-13T05:00:19.787Z,99.91
2017-11-13T05:01:19.825Z,99.99
2017-11-13T05:02:19.848Z,99.99
2017-11-13T05:03:19.937Z,99.99
2017-11-13T05:04:19.914Z,99.99
2017-11-13T05:05:19.948Z,99.72
2017-11-13T05:06:19.989Z,99.91
2017-11-13T05:07:20.016Z,99.53
2017-11-13T05:08:20.049Z,99.82
2017-11-13T05:09:20.079Z,99.58
2017-11-13T05:10:20.115Z,99.39
2017-11-13T05:11:20.146Z,99.20
2017-11-13T05:12:20.225Z,99.01
2017-11-13T05:13:20.212Z,99.20
2017-11-13T05:14:20.248Z,99.39
2017-11-13T05:15:20.279Z,99.11
2017-11-13T05:16:20.310Z,99.20
2017-11-13T05:17:20.345Z,99.49
2017-11-13T05:18:20.380Z,98.73
2017-11-13T05:19:20.411Z,99.11
2017-11-13T05:20:20.447Z,98.63
2017-11-13T05:21:20.477Z,98.07
2017-11-13T05:22:20.510Z,98.35
2017-11-13T05:23:20.550Z,98.16
2017-11-13T05:24:20.579Z,98.44
2017-11-13T05:25:20.612Z,98.16
2017-11-13T05:26:20.647Z,97.88
2017-11-13T05:27:20.677Z,98.44
2017-11-13T05:28:20.711Z,97.50
2017-11-13T05:29:20.743Z,97.59
2017-11-13T05:30:20.779Z,98.16
2017-11-13T05:31:20.810Z,97.69
2017-11-13T05:32:20.847Z,98.44
2017-11-13T05:33:20.878Z,98.44
2017-11-13T05:34:20.912Z,98.44
2017-11-13T05:35:20.952Z,98.73
2017-11-13T05:36:20.985Z,98.92
2017-11-13T05:37:21.010Z,98.82
2017-11-13T05:38:21.040Z,99.20
2017-11-13T05:39:21.082Z,99.11
2017-11-13T05:40:21.107Z,99.01
2017-11-13T05:41:21.143Z,99.30
2017-11-13T05:42:21.177Z,99.11
2017-11-13T05:43:21.230Z,99.30
2017-11-13T05:44:21.241Z,99.20
2017-11-13T05:45:21.274Z,98.92
2017-11-13T05:46:21.309Z,98.73
2017-11-13T05:47:21.341Z,98.44
2017-11-13T05:48:21.399Z,98.63
2017-11-13T05:49:21.408Z,98.92
2017-11-13T05:50:21.469Z,98.44
2017-11-13T05:51:21.472Z,98.82
2017-11-13T05:53:21.539Z,98.82
2017-11-13T05:54:21.575Z,98.82
2017-11-13T05:55:21.608Z,98.92
2017-11-13T05:56:21.639Z,98.35
2017-11-13T05:57:21.673Z,98.54
2017-11-13T05:58:21.705Z,99.39
2017-11-13T05:59:21.835Z,98.82
2017-11-13T06:00:21.772Z,98.63
2017-11-13T06:01:21.808Z,98.63
2017-11-13T06:02:21.840Z,98.25
2017-11-13T06:03:21.872Z,97.78
2017-11-13T06:04:21.911Z,97.40
2017-11-13T06:05:21.941Z,97.50
2017-11-13T06:06:21.974Z,97.88
2017-11-13T06:07:22.004Z,98.54
2017-11-13T06:08:22.121Z,98.35
2017-11-13T06:09:22.073Z,97.69
2017-11-13T06:10:22.155Z,96.73
2017-11-13T06:11:22.139Z,97.02
2017-11-13T06:12:22.172Z,97.02
2017-11-13T06:13:22.204Z,97.02
2017-11-13T06:14:22.239Z,96.92
2017-11-13T06:15:22.270Z,97.59
2017-11-13T06:16:22.306Z,97.88
2017-11-13T06:17:22.341Z,97.31
2017-11-13T06:18:22.370Z,97.50
2017-11-13T06:19:22.413Z,97.31
2017-11-13T06:20:22.441Z,97.12
2017-11-13T06:21:22.471Z,97.31
2017-11-13T06:22:22.502Z,96.64
2017-11-13T06:23:22.536Z,97.69
2017-11-13T06:24:22.571Z,97.69
2017-11-13T06:25:22.604Z,97.31
2017-11-13T06:26:22.637Z,97.50
2017-11-13T06:27:22.670Z,97.02
2017-11-13T06:28:22.702Z,97.21
2017-11-13T06:29:22.737Z,97.31
2017-11-13T06:30:22.771Z,97.31
2017-11-13T06:31:22.803Z,97.50
2017-11-13T06:32:22.836Z,97.50
2017-11-13T06:33:22.872Z,97.12
2017-11-13T06:34:22.901Z,97.50
2017-11-13T06:35:22.937Z,97.50
2017-11-13T06:36:22.971Z,97.40
2017-11-13T06:37:23.003Z,97.31
2017-11-13T06:38:23.034Z,97.50
2017-11-13T06:39:23.073Z,97.50
2017-11-13T06:40:23.103Z,97.50
2017-11-13T06:41:23.135Z,97.21
2017-11-13T06:42:23.167Z,97.12
2017-11-13T06:43:23.202Z,97.12
2017-11-13T06:44:23.243Z,97.31
2017-11-13T06:45:23.276Z,97.59
2017-11-13T06:46:23.303Z,98.07
2017-11-13T06:47:23.338Z,97.69
2017-11-13T06:48:23.369Z,97.97
2017-11-13T06:49:23.402Z,97.97
2017-11-13T06:50:23.433Z,97.50
2017-11-13T06:51:23.469Z,97.97
2017-11-13T06:52:23.502Z,97.78
2017-11-13T06:53:23.532Z,98.16
2017-11-13T06:54:23.565Z,97.69
2017-11-13T06:55:23.690Z,97.50
2017-11-13T06:56:23.631Z,97.59
2017-11-13T06:57:23.689Z,97.69
2017-11-13T06:58:23.702Z,97.59
2017-11-13T06:59:23.732Z,96.92
2017-11-13T07:00:23.765Z,96.36
2017-11-13T07:01:23.800Z,96.64
2017-11-13T07:02:23.849Z,96.64
2017-11-13T07:03:23.865Z,96.73
2017-11-13T07:04:23.899Z,97.31
2017-11-13T07:05:23.932Z,97.02
2017-11-13T07:06:23.996Z,96.92
2017-11-13T07:07:23.998Z,96.92
2017-11-13T07:08:24.038Z,96.36
2017-11-13T07:09:24.063Z,96.73
2017-11-13T07:10:24.108Z,97.12
2017-11-13T07:11:24.136Z,96.64
2017-11-13T07:12:24.166Z,96.36
2017-11-13T07:13:24.197Z,96.45
2017-11-13T07:14:24.241Z,96.26
2017-11-13T07:15:24.364Z,95.50
2017-11-13T07:16:24.300Z,95.03
2017-11-13T07:17:24.335Z,94.37
2017-11-13T07:18:24.372Z,94.56
2017-11-13T07:19:24.397Z,94.56
2017-11-13T07:20:24.435Z,94.37
2017-11-13T07:21:24.464Z,93.99
2017-11-13T07:22:24.495Z,94.56
2017-11-13T07:23:24.529Z,94.56
2017-11-13T07:24:24.566Z,94.46
2017-11-13T07:25:24.597Z,94.93
2017-11-13T07:26:24.630Z,95.22
2017-11-13T07:27:24.665Z,94.93
2017-11-13T07:28:24.697Z,95.22
2017-11-13T07:29:24.729Z,96.17
2017-11-13T07:30:24.764Z,96.08
2017-11-13T07:31:24.798Z,95.88
2017-11-13T07:32:24.826Z,96.73
2017-11-13T07:33:24.860Z,96.83
2017-11-13T07:34:24.896Z,96.83
2017-11-13T07:35:24.927Z,96.92
2017-11-13T07:36:24.960Z,96.73
2017-11-13T07:37:24.994Z,97.16
2017-11-13T07:38:25.025Z,97.26
2017-11-13T07:39:25.062Z,97.73
2017-11-13T07:40:25.109Z,97.97
2017-11-13T07:41:25.129Z,97.45
2017-11-13T07:42:25.165Z,98.11
2017-11-13T07:43:25.191Z,97.54
2017-11-13T07:44:25.225Z,97.83
2017-11-13T07:45:25.256Z,98.11
2017-11-13T07:46:25.289Z,98.21
2017-11-13T07:47:25.322Z,98.39
2017-11-13T07:48:25.355Z,98.39
2017-11-13T07:49:25.394Z,98.68
2017-11-13T07:50:25.421Z,98.11
2017-11-13T07:51:25.457Z,98.58
2017-11-13T07:52:25.486Z,98.21
2017-11-13T07:53:25.618Z,98.21
2017-11-13T07:54:25.552Z,98.35
2017-11-13T07:55:25.588Z,97.59
2017-11-13T07:56:25.618Z,96.92
2017-11-13T07:57:25.649Z,95.69
2017-11-13T07:58:25.682Z,95.41
2017-11-13T07:59:25.717Z,95.27
2017-11-13T08:00:25.749Z,94.42
2017-11-13T08:01:25.782Z,94.23
2017-11-13T08:02:25.893Z,95.07
2017-11-13T08:03:25.846Z,94.32
2017-11-13T08:04:25.881Z,93.84
2017-11-13T08:05:25.912Z,93.94
2017-11-13T08:06:25.949Z,93.46
2017-11-13T08:07:25.999Z,93.65
2017-11-13T08:08:26.012Z,92.52
2017-11-13T08:09:26.047Z,92.52
2017-11-13T08:10:26.077Z,92.61
2017-11-13T08:11:26.127Z,92.80
2017-11-13T08:12:26.146Z,92.99
2017-11-13T08:13:26.193Z,92.61
2017-11-13T08:14:26.208Z,92.42
2017-11-13T08:15:26.247Z,91.47
2017-11-13T08:16:26.277Z,91.66
2017-11-13T08:17:26.311Z,91.28
2017-11-13T08:18:26.355Z,91.85
2017-11-13T08:19:26.379Z,91.47
2017-11-13T08:20:26.409Z,91.28
2017-11-13T08:21:26.447Z,91.00
2017-11-13T08:22:26.478Z,91.19
2017-11-13T08:23:26.512Z,91.38
2017-11-13T08:24:26.549Z,91.66
2017-11-13T08:25:26.579Z,91.47
2017-11-13T08:26:26.611Z,90.81
2017-11-13T08:27:26.656Z,91.47
2017-11-13T08:28:26.679Z,90.81
2017-11-13T08:29:26.713Z,90.85
2017-11-13T08:30:26.749Z,90.47
2017-11-13T08:31:26.781Z,90.38
2017-11-13T08:32:26.813Z,90.00
2017-11-13T08:33:26.849Z,90.38
2017-11-13T08:34:26.878Z,90.85
2017-11-13T08:35:26.917Z,91.04
2017-11-13T08:36:26.950Z,91.24
2017-11-13T08:37:26.982Z,90.57
2017-11-13T08:38:27.013Z,90.28
2017-11-13T08:39:27.049Z,88.67
2017-11-13T08:40:27.084Z,87.34
2017-11-13T08:41:27.118Z,86.77
2017-11-13T08:42:27.149Z,87.53
2017-11-13T08:43:27.183Z,86.87
2017-11-13T08:44:27.219Z,86.01
2017-11-13T08:45:27.252Z,85.63
2017-11-13T08:46:27.284Z,86.30
2017-11-13T08:47:27.319Z,86.20
2017-11-13T08:48:27.355Z,86.58
2017-11-13T08:49:27.401Z,86.58
2017-11-13T08:50:27.423Z,87.43
2017-11-13T08:51:27.453Z,86.68
2017-11-13T08:52:27.489Z,86.58
2017-11-13T08:53:27.531Z,86.49
2017-11-13T08:54:27.569Z,86.68
2017-11-13T08:55:27.589Z,86.20
2017-11-13T08:56:27.630Z,85.82
2017-11-13T08:57:27.659Z,86.96
2017-11-13T08:58:27.702Z,84.59
2017-11-13T08:59:27.730Z,84.59
2017-11-13T09:00:27.811Z,85.44
2017-11-13T09:01:27.803Z,85.16
2017-11-13T09:02:27.830Z,85.44
2017-11-13T09:03:27.865Z,85.35
2017-11-13T09:04:27.899Z,84.49
2017-11-13T09:05:27.937Z,84.59
2017-11-13T09:06:27.966Z,84.49
2017-11-13T09:07:28.005Z,85.35
2017-11-13T09:08:28.042Z,84.78
2017-11-13T09:09:28.101Z,84.87
2017-11-13T09:10:28.101Z,84.78
2017-11-13T09:11:28.136Z,83.92
2017-11-13T09:12:28.171Z,83.26
2017-11-13T09:13:28.202Z,82.88
2017-11-13T09:14:28.241Z,83.73
2017-11-13T09:15:28.272Z,83.83
2017-11-13T09:16:28.304Z,84.30
2017-11-13T09:17:28.339Z,84.21
2017-11-13T09:18:28.372Z,84.01
2017-11-13T09:19:28.409Z,84.21
2017-11-13T09:20:28.442Z,84.21
2017-11-13T09:21:28.482Z,83.92
2017-11-13T09:22:28.512Z,83.92
2017-11-13T09:23:28.544Z,84.11
2017-11-13T09:24:28.577Z,84.11
2017-11-13T09:25:28.611Z,83.45
2017-11-13T09:26:28.645Z,83.54
2017-11-13T09:27:28.682Z,83.73
2017-11-13T09:28:28.713Z,82.40
2017-11-13T09:29:28.747Z,82.59
2017-11-13T09:30:28.783Z,83.36
2017-11-13T09:31:28.816Z,83.16
2017-11-13T09:32:28.854Z,83.36
2017-11-13T09:33:28.884Z,82.97
2017-11-13T09:34:28.915Z,82.69
2017-11-13T09:35:28.953Z,83.45
2017-11-13T09:36:28.986Z,82.88
2017-11-13T09:37:29.020Z,82.88
2017-11-13T09:38:29.054Z,82.78
2017-11-13T09:39:29.091Z,83.16
2017-11-13T09:40:29.127Z,83.16
2017-11-13T09:41:29.163Z,82.50
2017-11-13T09:42:29.192Z,82.88
2017-11-13T09:43:29.225Z,82.97
2017-11-13T09:44:29.264Z,82.92
2017-11-13T09:45:29.294Z,82.35
2017-11-13T09:46:29.327Z,82.82
2017-11-13T09:47:29.363Z,82.54
2017-11-13T09:48:29.398Z,81.78
2017-11-13T09:49:29.434Z,82.07
2017-11-13T09:50:29.475Z,82.35
2017-11-13T09:51:29.505Z,80.83
2017-11-13T09:52:29.535Z,80.35
2017-11-13T09:53:29.571Z,80.55
2017-11-13T09:54:29.676Z,81.59
2017-11-13T09:55:29.639Z,81.30
2017-11-13T09:56:29.673Z,81.12
2017-11-13T09:57:29.708Z,80.45
2017-11-13T09:58:29.742Z,80.45
2017-11-13T09:59:29.777Z,80.26
2017-11-13T10:00:29.813Z,80.45
2017-11-13T10:01:29.845Z,80.83
2017-11-13T10:02:29.884Z,80.45
2017-11-13T10:03:29.965Z,80.64
2017-11-13T10:04:29.953Z,81.21
2017-11-13T10:05:29.983Z,82.07
2017-11-13T10:06:30.018Z,81.49
2017-11-13T10:07:30.057Z,80.35
2017-11-13T10:08:30.095Z,81.21
2017-11-13T10:09:30.126Z,81.40
2017-11-13T10:10:30.159Z,80.35
2017-11-13T10:11:30.193Z,79.79
2017-11-13T10:12:30.335Z,79.97
2017-11-13T10:13:30.265Z,79.79
2017-11-13T10:14:30.306Z,78.74
2017-11-13T10:15:30.335Z,79.50
2017-11-13T10:16:30.370Z,77.51
2017-11-13T10:17:30.405Z,78.08
2017-11-13T10:18:30.440Z,78.69
2017-11-13T10:19:30.474Z,78.36
2017-11-13T10:20:30.524Z,79.31
2017-11-13T10:21:30.542Z,78.55
2017-11-13T10:22:30.585Z,79.88
2017-11-13T10:23:30.615Z,78.08
2017-11-13T10:24:30.648Z,79.83
2017-11-13T10:25:30.684Z,80.16
2017-11-13T10:26:30.725Z,79.31
2017-11-13T10:27:30.754Z,79.69
2017-11-13T10:28:30.788Z,80.40
2017-11-13T10:29:30.834Z,80.96
2017-11-13T10:30:30.856Z,79.41
2017-11-13T10:31:30.896Z,79.22
2017-11-13T10:32:30.927Z,78.45
2017-11-13T10:33:30.976Z,78.36
2017-11-13T10:34:30.999Z,79.83
2017-11-13T10:35:31.034Z,78.11
2017-11-13T10:36:31.068Z,77.92
2017-11-13T10:37:31.101Z,78.30
2017-11-13T10:38:31.137Z,77.92
2017-11-13T10:39:31.176Z,78.59
2017-11-13T10:40:31.207Z,78.30
2017-11-13T10:41:31.260Z,78.59
2017-11-13T10:42:31.276Z,78.69
2017-11-13T10:43:31.316Z,78.59
2017-11-13T10:44:31.351Z,78.59
2017-11-13T10:45:31.385Z,77.64
2017-11-13T10:46:31.418Z,78.02
2017-11-13T10:47:31.457Z,78.78
2017-11-13T10:48:31.489Z,78.78
2017-11-13T10:49:31.523Z,78.40
2017-11-13T10:50:31.567Z,79.06
2017-11-13T10:51:31.596Z,78.50
2017-11-13T10:52:31.629Z,79.44
2017-11-13T10:53:31.667Z,79.35
2017-11-13T10:54:31.699Z,77.92
2017-11-13T10:55:31.737Z,77.17
2017-11-13T10:56:31.802Z,78.11
2017-11-13T10:57:31.807Z,78.16
2017-11-13T10:58:31.839Z,76.50
2017-11-13T10:59:31.929Z,74.73
2017-11-13T11:00:31.911Z,74.35
2017-11-13T11:01:31.946Z,74.54
2017-11-13T11:02:31.982Z,74.16
2017-11-13T11:03:32.032Z,74.54
2017-11-13T11:04:32.052Z,76.35
2017-11-13T11:05:32.095Z,76.25
2017-11-13T11:06:32.129Z,76.44
2017-11-13T11:07:32.169Z,76.25
2017-11-13T11:08:32.208Z,75.21
2017-11-13T11:09:32.231Z,75.49
2017-11-13T11:10:32.266Z,74.63
2017-11-13T11:11:32.305Z,75.30
2017-11-13T11:12:32.338Z,75.49
2017-11-13T11:13:32.378Z,75.78
2017-11-13T11:14:32.410Z,76.44
2017-11-13T11:15:32.448Z,75.59
2017-11-13T11:16:32.480Z,75.87
2017-11-13T11:17:32.518Z,75.78
2017-11-13T11:18:32.552Z,76.63
2017-11-13T11:19:32.588Z,76.54
2017-11-13T11:20:32.628Z,77.11
2017-11-13T11:21:32.661Z,77.11
2017-11-13T11:22:32.700Z,77.01
2017-11-13T11:23:32.731Z,77.01
2017-11-13T11:24:32.772Z,77.17
2017-11-13T11:25:32.803Z,76.63
2017-11-13T11:26:32.840Z,76.92
2017-11-13T11:27:32.874Z,76.82
2017-11-13T11:28:32.911Z,77.58
2017-11-13T11:29:32.959Z,76.88
2017-11-13T11:30:32.982Z,77.26
2017-11-13T11:31:33.018Z,77.73
2017-11-13T11:32:33.053Z,77.64
2017-11-13T11:33:33.088Z,76.78
2017-11-13T11:34:33.123Z,77.36
2017-11-13T11:35:33.161Z,78.69
2017-11-13T11:36:33.200Z,78.69
2017-11-13T11:37:33.229Z,78.59
2017-11-13T11:38:33.274Z,78.11
2017-11-13T11:39:33.305Z,78.02
2017-11-13T11:40:33.341Z,78.11
2017-11-13T11:41:33.374Z,78.02
2017-11-13T11:42:33.408Z,77.64
2017-11-13T11:43:33.445Z,78.11
2017-11-13T11:44:33.537Z,77.64
2017-11-13T11:45:33.519Z,77.36
2017-11-13T11:46:33.550Z,76.88
2017-11-13T11:47:33.584Z,76.59
2017-11-13T11:48:33.620Z,77.26
2017-11-13T11:49:33.654Z,76.78
2017-11-13T11:50:33.691Z,77.07
2017-11-13T11:51:33.724Z,77.36
2017-11-13T11:52:33.776Z,76.97
2017-11-13T11:53:33.810Z,76.97
2017-11-13T11:54:33.830Z,76.78
2017-11-13T11:55:33.872Z,77.17
2017-11-13T11:56:33.902Z,76.78
2017-11-13T11:57:33.952Z,76.69
2017-11-13T11:58:33.973Z,76.78
2017-11-13T11:59:34.023Z,76.03
2017-11-13T12:00:34.046Z,75.17
2017-11-13T12:01:34.087Z,75.26
2017-11-13T12:02:34.127Z,74.51
2017-11-13T12:03:34.152Z,73.88
2017-11-13T12:04:34.186Z,73.88
2017-11-13T12:05:34.221Z,74.63
2017-11-13T12:06:34.255Z,74.54
2017-11-13T12:07:34.290Z,75.30
2017-11-13T12:08:34.327Z,74.54
2017-11-13T12:09:34.361Z,75.49
2017-11-13T12:10:34.397Z,74.54
2017-11-13T12:11:34.432Z,74.73
2017-11-13T12:12:34.472Z,75.21
2017-11-13T12:13:34.512Z,74.16
2017-11-13T12:14:34.541Z,73.78
2017-11-13T12:15:34.575Z,74.73
2017-11-13T12:16:34.612Z,74.63
2017-11-13T12:17:34.644Z,74.73
2017-11-13T12:18:34.682Z,75.40
2017-11-13T12:19:34.717Z,75.59
2017-11-13T12:20:34.768Z,76.63
2017-11-13T12:21:34.791Z,76.44
2017-11-13T12:22:34.824Z,75.30
2017-11-13T12:23:34.861Z,74.77
2017-11-13T12:24:34.908Z,74.96
2017-11-13T12:25:34.964Z,73.63
2017-11-13T12:26:34.972Z,73.06
2017-11-13T12:27:35.002Z,72.74
2017-11-13T12:28:35.041Z,73.15
2017-11-13T12:29:35.072Z,73.53
2017-11-13T12:30:35.113Z,73.72
2017-11-13T12:31:35.152Z,73.53
2017-11-13T12:32:35.184Z,73.91
2017-11-13T12:33:35.218Z,73.15
2017-11-13T12:34:35.253Z,72.77
2017-11-13T12:35:35.288Z,72.30
2017-11-13T12:36:35.327Z,72.20
2017-11-13T12:37:35.363Z,73.06
2017-11-13T12:38:35.399Z,73.06
2017-11-13T12:39:35.433Z,73.53
2017-11-13T12:40:35.469Z,73.44
2017-11-13T12:41:35.506Z,73.34
2017-11-13T12:42:35.545Z,72.39
2017-11-13T12:43:35.584Z,72.30
2017-11-13T12:44:35.616Z,71.82
2017-11-13T12:45:35.653Z,71.72
2017-11-13T12:46:35.684Z,71.72
2017-11-13T12:47:35.751Z,72.20
2017-11-13T12:48:35.757Z,72.20
2017-11-13T12:49:35.794Z,72.20
2017-11-13T12:50:35.829Z,71.91
2017-11-13T12:51:35.863Z,71.72
2017-11-13T12:52:35.905Z,73.06
2017-11-13T12:53:35.943Z,72.96